Time;durP1;ratioP1;P1;durP2;ratioP2;P2;SDS_P1;SDS_P2;PMS_P1;PMS_P2;Temp;Humidity;BMP_temperature;BMP_pressure;BME280_temperature;BME280_humidity;BME280_pressure;Samples;Min_cycle;Max_cycle;Signal;HPM_P1;HPM_P2
2022/09/15 00:01:40;;;;;;;1.60;0.88;;;18.30;99.90;;;;;;4956103;28;20030;-64
2022/09/15 00:04:07;;;;;;;2.25;1.40;;;18.30;99.90;;;;;;4971480;28;20031;-64
2022/09/15 00:06:33;;;;;;;1.80;1.02;;;18.20;99.90;;;;;;4973002;28;20031;-64
2022/09/15 00:09:00;;;;;;;2.67;1.50;;;18.20;99.90;;;;;;4955254;28;20039;-64
2022/09/15 00:11:30;;;;;;;2.85;1.02;;;18.20;99.90;;;;;;4955820;28;20125;-64
2022/09/15 00:13:59;;;;;;;1.35;0.77;;;18.30;99.90;;;;;;4972709;28;20070;-64
2022/09/15 00:16:27;;;;;;;3.25;1.10;;;18.30;99.90;;;;;;4955612;28;20042;-63
2022/09/15 00:18:53;;;;;;;3.80;1.02;;;18.30;99.90;;;;;;4955150;28;20472;-64
2022/09/15 00:21:29;;;;;;;1.30;0.73;;;18.30;99.90;;;;;;4955597;28;20035;-64
2022/09/15 00:23:58;;;;;;;1.88;1.13;;;18.30;99.90;;;;;;4954614;28;20031;-63
2022/09/15 00:26:27;;;;;;;2.50;0.90;;;18.30;99.90;;;;;;4955338;28;20043;-64
2022/09/15 00:28:54;;;;;;;2.17;1.02;;;18.30;99.90;;;;;;4955038;28;20125;-64
2022/09/15 00:31:24;;;;;;;1.58;0.95;;;18.30;99.90;;;;;;4955473;28;20058;-64
2022/09/15 00:33:53;;;;;;;1.55;0.93;;;18.20;99.90;;;;;;4955090;28;20031;-64
2022/09/15 00:36:20;;;;;;;2.92;1.35;;;18.20;99.90;;;;;;4972285;28;20125;-64
2022/09/15 00:38:46;;;;;;;2.38;1.70;;;18.20;99.90;;;;;;4954817;28;20495;-64
2022/09/15 00:41:17;;;;;;;2.35;0.90;;;18.20;99.90;;;;;;4955169;28;20502;-65
2022/09/15 00:43:56;;;;;;;3.13;0.90;;;18.20;99.90;;;;;;4971989;28;20093;-64
2022/09/15 00:46:32;;;;;;;1.77;1.00;;;18.20;99.90;;;;;;4972129;28;20510;-62
2022/09/15 00:49:19;;;;;;;1.63;0.93;;;18.20;99.90;;;;;;4970602;28;20151;-64
2022/09/15 00:52:02;;;;;;;1.88;1.13;;;18.10;99.90;;;;;;4956279;28;20031;-65
2022/09/15 00:54:38;;;;;;;1.70;0.77;;;18.10;99.90;;;;;;4972285;28;20058;-64
2022/09/15 00:57:14;;;;;;;2.13;1.13;;;18.10;99.90;;;;;;4955465;28;20050;-65
2022/09/15 00:59:41;;;;;;;2.17;1.23;;;18.10;99.90;;;;;;4955442;28;20023;-64
2022/09/15 01:02:31;;;;;;;3.20;1.50;;;18.10;99.90;;;;;;4954500;28;20031;-65
2022/09/15 01:05:00;;;;;;;1.23;0.80;;;18.10;99.90;;;;;;4942936;29;20015;-64
2022/09/15 01:07:39;;;;;;;1.17;0.73;;;18.10;99.90;;;;;;4947498;29;20020;-63
2022/09/15 01:10:13;;;;;;;1.55;0.77;;;18.10;99.90;;;;;;4948763;29;20062;-63
2022/09/15 01:12:40;;;;;;;0.90;0.80;;;18.10;99.90;;;;;;4951145;28;20046;-63
2022/09/15 01:15:06;;;;;;;3.50;0.60;;;18.10;99.90;;;;;;4952527;28;20023;-63
2022/09/15 01:17:53;;;;;;;3.72;2.15;;;18.10;99.90;;;;;;4951277;28;20480;-63
2022/09/15 01:21:05;;;;;;;1.67;0.77;;;18.10;99.90;;;;;;4952465;29;20480;-63
2022/09/15 01:23:58;;;;;;;;;;;18.10;99.90;;;;;;4936417;29;20490;-63
2022/09/15 01:26:58;;;;;;;0.82;0.63;;;18.10;99.90;;;;;;4931967;29;19966;-65
2022/09/15 01:30:19;;;;;;;2.20;1.38;;;18.10;99.90;;;;;;4918109;29;20035;-62
2022/09/15 01:33:06;;;;;;;1.25;0.60;;;18.10;99.90;;;;;;4915854;29;20578;-63
2022/09/15 01:35:43;;;;;;;1.23;0.70;;;18.10;99.90;;;;;;4936010;29;20488;-64
2022/09/15 01:38:47;;;;;;;2.40;0.80;;;18.10;99.90;;;;;;4936715;29;20066;-63
2022/09/15 01:41:28;;;;;;;1.52;1.00;;;18.10;99.90;;;;;;4931189;29;20023;-63
2022/09/15 01:44:17;;;;;;;2.47;1.38;;;18.20;99.90;;;;;;4954612;29;20028;-63
2022/09/15 01:46:49;;;;;;;2.95;0.75;;;18.10;99.90;;;;;;4954846;29;20106;-63
2022/09/15 01:49:20;;;;;;;0.63;0.40;;;18.10;99.90;;;;;;4954578;29;20066;-63
2022/09/15 01:51:49;;;;;;;2.70;1.30;;;18.20;99.90;;;;;;4954879;29;20058;-63
2022/09/15 01:54:21;;;;;;;1.92;1.33;;;18.10;99.90;;;;;;4954282;29;20039;-63
2022/09/15 01:56:47;;;;;;;1.48;0.68;;;18.10;99.90;;;;;;4955812;28;20130;-63
2022/09/15 01:59:12;;;;;;;1.50;0.77;;;18.10;99.90;;;;;;4954052;29;20030;-63
2022/09/15 02:01:52;;;;;;;2.70;1.00;;;18.10;99.90;;;;;;4955831;28;20046;-63
2022/09/15 02:04:37;;;;;;;3.65;1.15;;;18.00;99.90;;;;;;4954343;29;20031;-63
2022/09/15 02:07:10;;;;;;;1.35;1.00;;;18.10;99.90;;;;;;4955774;28;20082;-63
2022/09/15 02:10:00;;;;;;;1.42;0.68;;;18.10;99.90;;;;;;4955188;28;20502;-63
2022/09/15 02:13:19;;;;;;;0.93;0.68;;;18.10;99.90;;;;;;4954127;29;20038;-63
2022/09/15 02:15:55;;;;;;;1.88;0.80;;;18.10;99.90;;;;;;4939181;29;20063;-63
2022/09/15 02:18:58;;;;;;;1.13;0.60;;;18.00;99.90;;;;;;4919897;29;20103;-63
2022/09/15 02:21:36;;;;;;;2.83;0.80;;;18.00;99.90;;;;;;4936397;29;20056;-63
2022/09/15 02:24:11;;;;;;;1.17;0.82;;;18.00;99.90;;;;;;4919056;29;20023;-63
2022/09/15 02:26:39;;;;;;;2.60;0.88;;;18.00;99.90;;;;;;4919394;29;20038;-63
2022/09/15 02:29:11;;;;;;;2.58;1.40;;;18.00;99.90;;;;;;4918882;29;20086;-62
2022/09/15 02:31:39;;;;;;;1.17;0.85;;;18.00;99.90;;;;;;4936256;29;20035;-63
2022/09/15 02:34:18;;;;;;;0.80;0.65;;;18.10;99.90;;;;;;4934445;29;20035;-63
2022/09/15 02:36:45;;;;;;;0.55;0.52;;;18.10;99.90;;;;;;4936145;29;20035;-63
2022/09/15 02:39:16;;;;;;;1.30;0.75;;;18.00;99.90;;;;;;4918579;29;20032;-63
2022/09/15 02:41:42;;;;;;;;;;;17.90;99.90;;;;;;4936442;29;20485;-63
2022/09/15 02:44:08;;;;;;;0.90;0.70;;;17.90;99.90;;;;;;4934143;29;19919;-63
2022/09/15 02:46:35;;;;;;;1.30;0.90;;;17.90;99.90;;;;;;4917992;29;20036;-63
2022/09/15 02:49:01;;;;;;;0.93;0.70;;;17.90;99.90;;;;;;4918534;29;20119;-62
2022/09/15 02:51:27;;;;;;;1.48;0.90;;;17.90;99.90;;;;;;4918898;29;20095;-64
2022/09/15 02:53:53;;;;;;;1.10;0.77;;;17.90;99.90;;;;;;4935201;29;20039;-63
2022/09/15 02:56:19;;;;;;;1.15;0.85;;;17.90;99.90;;;;;;4955972;23;20047;-63
2022/09/15 02:58:45;;;;;;;0.85;0.57;;;17.90;99.90;;;;;;4963820;28;20027;-63
2022/09/15 03:01:14;;;;;;;1.15;0.80;;;17.90;99.90;;;;;;4954781;29;20034;-62
2022/09/15 03:03:42;;;;;;;1.73;0.98;;;18.00;99.90;;;;;;4948662;28;20038;-62
2022/09/15 03:06:17;;;;;;;2.08;0.90;;;18.00;99.90;;;;;;4973264;28;20495;-62
2022/09/15 03:08:50;;;;;;;1.50;0.88;;;18.00;99.90;;;;;;4972424;28;20038;-63
2022/09/15 03:11:19;;;;;;;2.28;0.95;;;18.00;99.90;;;;;;4964559;28;20039;-62
2022/09/15 03:13:46;;;;;;;2.95;1.02;;;18.00;99.90;;;;;;4953799;28;20031;-63
2022/09/15 03:16:15;;;;;;;2.15;1.02;;;18.00;99.90;;;;;;4970030;28;20031;-63
2022/09/15 03:18:41;;;;;;;1.40;0.82;;;18.10;99.90;;;;;;4972130;28;20061;-63
2022/09/15 03:21:12;;;;;;;2.38;1.17;;;18.10;99.90;;;;;;4955019;28;20023;-62
2022/09/15 03:23:38;;;;;;;1.83;1.17;;;18.10;99.90;;;;;;4953910;29;20407;-63
2022/09/15 03:26:05;;;;;;;5.15;1.30;;;18.10;99.90;;;;;;4953852;28;20042;-63
2022/09/15 03:28:31;;;;;;;4.13;1.92;;;18.10;99.90;;;;;;4952854;28;20031;-63
2022/09/15 03:30:56;;;;;;;1.33;0.93;;;18.10;99.90;;;;;;4953617;29;20446;-62
2022/09/15 03:33:23;;;;;;;1.73;0.80;;;18.10;99.90;;;;;;4952101;29;20066;-62
2022/09/15 03:35:51;;;;;;;1.98;1.42;;;18.10;99.90;;;;;;4952453;28;20046;-63
2022/09/15 03:38:18;;;;;;;1.77;1.20;;;18.10;99.90;;;;;;4972941;28;20085;-62
2022/09/15 03:40:58;;;;;;;1.65;1.08;;;18.10;99.90;;;;;;4972932;28;20027;-62
2022/09/15 03:43:25;;;;;;;1.30;0.88;;;18.00;99.90;;;;;;4972662;28;20031;-62
2022/09/15 03:45:52;;;;;;;2.13;0.82;;;17.90;99.90;;;;;;4973138;28;20057;-63
2022/09/15 03:48:18;;;;;;;1.38;0.82;;;17.90;99.90;;;;;;4971647;28;20494;-61
2022/09/15 03:50:44;;;;;;;2.92;1.77;;;17.90;99.90;;;;;;4971606;28;20034;-60
2022/09/15 03:53:09;;;;;;;1.95;0.90;;;17.90;99.90;;;;;;4971147;28;20045;-63
2022/09/15 03:55:35;;;;;;;2.45;1.52;;;17.90;99.90;;;;;;4960724;28;20406;-63
2022/09/15 03:58:00;;;;;;;1.88;1.15;;;17.80;99.90;;;;;;4988971;28;20031;-62
2022/09/15 04:00:26;;;;;;;2.00;1.13;;;17.80;99.90;;;;;;4993165;28;20033;-62
2022/09/15 04:02:52;;;;;;;2.97;1.33;;;17.80;99.90;;;;;;4990470;28;20116;-63
2022/09/15 04:05:18;;;;;;;2.17;1.05;;;17.80;99.90;;;;;;5011425;28;20397;-63
2022/09/15 04:07:43;;;;;;;2.58;1.48;;;17.80;99.90;;;;;;4989469;28;20027;-62
2022/09/15 04:10:10;;;;;;;3.20;2.28;;;17.90;99.90;;;;;;4986341;28;20117;-62
2022/09/15 04:12:35;;;;;;;6.60;1.95;;;17.90;99.90;;;;;;4991508;28;20042;-62
2022/09/15 04:15:02;;;;;;;1.77;1.00;;;18.00;99.90;;;;;;4991360;28;20041;-62
2022/09/15 04:17:29;;;;;;;2.05;1.25;;;18.00;99.90;;;;;;4990343;28;20513;-62
2022/09/15 04:19:54;;;;;;;1.65;1.00;;;18.00;99.90;;;;;;4960041;28;20396;-62
2022/09/15 04:22:20;;;;;;;1.55;0.93;;;18.00;99.90;;;;;;4990277;28;20038;-62
2022/09/15 04:24:49;;;;;;;1.13;0.90;;;18.00;99.90;;;;;;4991525;28;20102;-62
2022/09/15 04:27:16;;;;;;;2.35;0.95;;;18.00;99.90;;;;;;4989945;28;20038;-61
2022/09/15 04:29:42;;;;;;;1.40;1.00;;;18.00;99.90;;;;;;5003010;28;20029;-62
2022/09/15 04:32:08;;;;;;;1.35;0.77;;;18.10;99.90;;;;;;5010858;28;20030;-61
2022/09/15 04:34:34;;;;;;;1.48;1.17;;;18.00;99.90;;;;;;5010882;28;20092;-61
2022/09/15 04:37:01;;;;;;;1.15;0.70;;;18.00;99.90;;;;;;5010879;28;20042;-62
2022/09/15 04:39:27;;;;;;;0.95;0.63;;;18.00;99.90;;;;;;5010685;28;20041;-63
2022/09/15 04:41:53;;;;;;;2.63;1.48;;;18.10;99.90;;;;;;5010712;28;20030;-63
2022/09/15 04:44:19;;;;;;;1.73;0.68;;;18.00;99.90;;;;;;5010390;28;20545;-62
2022/09/15 04:46:45;;;;;;;1.40;0.60;;;17.90;99.90;;;;;;5011177;28;20033;-62
2022/09/15 04:49:10;;;;;;;0.50;0.50;;;17.90;99.90;;;;;;5009327;28;20034;-63
2022/09/15 04:51:37;;;;;;;0.80;0.50;;;17.90;99.90;;;;;;5011013;28;20030;-63
2022/09/15 04:54:03;;;;;;;0.85;0.38;;;18.00;99.90;;;;;;5009205;28;20482;-62
2022/09/15 04:56:29;;;;;;;0.77;0.45;;;18.00;99.90;;;;;;5007698;28;20088;-62
2022/09/15 04:58:58;;;;;;;0.75;0.47;;;18.00;99.90;;;;;;4994868;28;20049;-63
2022/09/15 05:01:30;;;;;;;1.02;0.45;;;18.00;99.90;;;;;;5009116;28;20689;-62
2022/09/15 05:03:56;;;;;;;2.85;0.93;;;18.10;99.90;;;;;;5009308;28;20483;-63
2022/09/15 05:06:25;;;;;;;0.45;0.30;;;18.00;99.90;;;;;;4991274;28;20034;-62
2022/09/15 05:08:55;;;;;;;2.38;0.55;;;18.00;99.90;;;;;;4988972;28;20474;-65
2022/09/15 05:11:21;;;;;;;0.93;0.60;;;18.00;99.90;;;;;;4989306;28;20041;-64
2022/09/15 05:13:47;;;;;;;0.77;0.43;;;18.00;99.90;;;;;;4990100;28;20037;-62
2022/09/15 05:16:20;;;;;;;0.80;0.50;;;18.10;99.90;;;;;;4989465;28;20031;-63
2022/09/15 05:18:48;;;;;;;3.70;1.13;;;18.10;99.90;;;;;;4989049;28;20557;-63
2022/09/15 05:21:17;;;;;;;0.75;0.60;;;18.10;99.90;;;;;;4989500;28;20038;-63
2022/09/15 05:23:44;;;;;;;3.45;0.60;;;18.00;99.90;;;;;;4988963;28;20092;-64
2022/09/15 05:26:16;;;;;;;0.60;0.50;;;18.10;99.90;;;;;;4989518;28;20042;-64
2022/09/15 05:28:43;;;;;;;0.57;0.30;;;18.10;99.90;;;;;;4989999;28;20030;-63
2022/09/15 05:31:13;;;;;;;2.00;0.70;;;18.00;99.90;;;;;;4969095;28;20467;-64
2022/09/15 05:33:39;;;;;;;1.15;0.70;;;18.10;99.90;;;;;;4988972;28;20031;-63
2022/09/15 05:36:06;;;;;;;2.08;0.95;;;18.10;99.90;;;;;;4989115;28;20042;-64
2022/09/15 05:38:32;;;;;;;1.42;0.93;;;18.00;99.90;;;;;;4973101;28;20084;-63
2022/09/15 05:41:07;;;;;;;1.38;0.68;;;17.90;99.90;;;;;;4987920;28;20097;-61
2022/09/15 05:43:35;;;;;;;2.75;0.98;;;17.80;99.90;;;;;;4989288;28;20033;-63
2022/09/15 05:46:03;;;;;;;3.25;1.55;;;17.90;99.90;;;;;;4989125;28;20105;-63
2022/09/15 05:48:28;;;;;;;5.75;2.25;;;18.00;99.90;;;;;;4986899;28;20030;-61
2022/09/15 05:50:55;;;;;;;5.10;1.50;;;18.10;99.90;;;;;;4989816;28;20038;-61
2022/09/15 05:53:21;;;;;;;3.83;1.83;;;18.10;99.90;;;;;;4989358;28;20067;-62
2022/09/15 05:55:46;;;;;;;4.22;2.33;;;18.00;99.90;;;;;;4972458;28;20834;-62
2022/09/15 05:58:13;;;;;;;4.60;2.40;;;17.90;99.90;;;;;;4989795;28;20513;-62
2022/09/15 06:00:40;;;;;;;5.28;2.17;;;17.80;99.90;;;;;;4996984;28;20033;-75
2022/09/15 06:03:12;;;;;;;5.10;2.50;;;17.70;99.90;;;;;;4976966;28;20030;-75
2022/09/15 06:05:37;;;;;;;4.45;2.42;;;17.60;99.90;;;;;;4985093;28;20042;-74
2022/09/15 06:08:03;;;;;;;5.38;2.17;;;17.40;99.90;;;;;;4970793;28;20035;-74
2022/09/15 06:10:28;;;;;;;9.20;3.60;;;17.30;99.90;;;;;;4974065;28;20369;-75
2022/09/15 06:12:55;;;;;;;7.03;3.33;;;17.30;99.90;;;;;;4989761;28;20482;-74
2022/09/15 06:15:22;;;;;;;6.88;3.88;;;17.10;99.90;;;;;;4988684;28;20112;-75
2022/09/15 06:17:48;;;;;;;10.75;4.10;;;17.00;99.90;;;;;;4988823;28;20474;-75
2022/09/15 06:20:14;;;;;;;8.18;3.50;;;17.00;99.90;;;;;;4988602;28;20122;-75
2022/09/15 06:22:40;;;;;;;6.53;3.58;;;16.90;99.90;;;;;;4992393;28;20109;-74
2022/09/15 06:25:06;;;;;;;11.98;4.43;;;16.90;99.90;;;;;;4992248;28;20030;-73
2022/09/15 06:27:32;;;;;;;7.57;3.83;;;16.90;99.90;;;;;;4992395;28;20026;-74
2022/09/15 06:29:58;;;;;;;6.43;3.70;;;16.90;99.90;;;;;;5006961;28;20109;-74
2022/09/15 06:32:25;;;;;;;8.70;4.10;;;16.90;99.90;;;;;;5011581;28;20029;-74
2022/09/15 06:34:50;;;;;;;6.80;3.50;;;16.90;99.90;;;;;;5011697;28;20034;-73
2022/09/15 06:37:16;;;;;;;10.75;4.32;;;17.00;99.90;;;;;;5012855;28;20034;-75
2022/09/15 06:39:43;;;;;;;7.72;3.90;;;17.00;99.90;;;;;;5012594;28;20033;-75
2022/09/15 06:42:09;;;;;;;9.13;3.42;;;17.10;99.90;;;;;;5012604;28;20026;-75
2022/09/15 06:44:35;;;;;;;13.18;4.70;;;17.10;99.90;;;;;;5012509;28;20030;-76
2022/09/15 06:47:01;;;;;;;7.45;3.50;;;17.20;99.90;;;;;;5011426;28;20092;-76
2022/09/15 06:49:27;;;;;;;11.40;3.55;;;17.20;99.90;;;;;;5012271;28;20099;-75
2022/09/15 06:51:53;;;;;;;7.63;2.22;;;17.30;99.90;;;;;;5012595;28;20133;-75
2022/09/15 06:54:19;;;;;;;2.58;1.55;;;17.40;99.90;;;;;;5012407;28;20124;-75
2022/09/15 06:56:44;;;;;;;4.53;2.58;;;17.00;99.90;;;;;;5011431;28;20038;-74
2022/09/15 06:59:11;;;;;;;4.40;1.40;;;17.10;99.90;;;;;;5011740;28;20052;-74
2022/09/15 07:01:37;;;;;;;4.60;1.58;;;17.10;99.90;;;;;;5012631;28;20311;-74
2022/09/15 07:04:07;;;;;;;3.35;1.63;;;17.00;99.90;;;;;;5011914;28;20128;-74
2022/09/15 07:06:33;;;;;;;2.80;1.73;;;16.90;99.90;;;;;;5011321;28;20036;-73
2022/09/15 07:09:01;;;;;;;2.13;1.40;;;16.80;99.90;;;;;;4994160;28;20088;-73
2022/09/15 07:11:29;;;;;;;1.98;1.50;;;16.80;99.90;;;;;;5000748;28;20533;-73
2022/09/15 07:13:55;;;;;;;2.03;1.20;;;16.70;99.90;;;;;;4991017;28;20116;-74
2022/09/15 07:16:21;;;;;;;6.75;1.85;;;16.60;99.90;;;;;;4974957;28;20034;-74
2022/09/15 07:18:48;;;;;;;1.27;1.10;;;16.60;99.90;;;;;;4991208;28;20033;-74
2022/09/15 07:21:21;;;;;;;3.47;1.50;;;16.60;99.90;;;;;;4991333;28;20018;-74
2022/09/15 07:23:48;;;;;;;3.03;1.40;;;16.50;99.90;;;;;;4990883;28;20387;-74
2022/09/15 07:26:26;;;;;;;2.20;1.30;;;16.50;99.90;;;;;;4992711;28;20038;-73
2022/09/15 07:28:56;;;;;;;2.42;1.58;;;16.60;99.90;;;;;;4996778;28;20033;-74
2022/09/15 07:31:24;;;;;;;9.80;2.03;;;16.50;99.90;;;;;;5012066;28;20057;-75
2022/09/15 07:33:50;;;;;;;1.23;0.93;;;16.60;99.90;;;;;;5009926;28;20113;-73
2022/09/15 07:36:16;;;;;;;4.05;1.95;;;16.70;99.90;;;;;;5012083;28;20117;-74
2022/09/15 07:38:46;;;;;;;6.68;2.10;;;16.70;99.90;;;;;;5010319;28;20502;-75
2022/09/15 07:41:19;;;;;;;3.80;1.40;;;16.80;99.90;;;;;;5010486;28;20029;-74
2022/09/15 07:43:51;;;;;;;1.75;1.08;;;16.90;99.90;;;;;;5011427;28;20030;-75
2022/09/15 07:46:18;;;;;;;3.42;2.42;;;16.90;99.90;;;;;;5011711;28;20469;-74
2022/09/15 07:48:53;;;;;;;6.00;1.55;;;17.00;99.90;;;;;;5011300;28;20034;-74
2022/09/15 07:51:19;;;;;;;2.60;1.30;;;17.10;99.90;;;;;;5010329;28;20053;-75
2022/09/15 07:53:47;;;;;;;3.28;1.40;;;17.10;99.90;;;;;;5011012;28;20121;-74
2022/09/15 07:56:13;;;;;;;2.47;1.30;;;17.20;99.90;;;;;;5010009;28;20029;-74
2022/09/15 07:58:39;;;;;;;5.50;1.65;;;17.30;99.90;;;;;;5002430;28;20635;-74
2022/09/15 08:01:09;;;;;;;6.35;1.40;;;17.30;99.90;;;;;;4991644;28;20038;-74
2022/09/15 08:03:42;;;;;;;6.10;1.40;;;17.40;99.90;;;;;;4991446;28;20041;-74
2022/09/15 08:06:09;;;;;;;4.45;2.25;;;17.50;99.90;;;;;;4991750;28;20286;-74
2022/09/15 08:08:37;;;;;;;2.60;1.30;;;17.40;99.90;;;;;;4990337;28;20034;-75
2022/09/15 08:11:09;;;;;;;2.60;1.40;;;17.50;99.90;;;;;;4983765;28;20450;-74
2022/09/15 08:13:35;;;;;;;1.63;1.23;;;17.60;99.90;;;;;;4954284;28;20117;-74
2022/09/15 08:16:15;;;;;;;2.90;1.65;;;17.60;99.90;;;;;;4954755;28;20119;-74
2022/09/15 08:18:42;;;;;;;1.58;0.90;;;17.70;99.90;;;;;;4955041;28;20081;-74
2022/09/15 08:21:13;;;;;;;3.92;2.05;;;17.80;99.90;;;;;;4954642;28;20069;-74
2022/09/15 08:23:39;;;;;;;4.22;1.73;;;17.90;99.90;;;;;;4954060;28;20034;-74
2022/09/15 08:26:08;;;;;;;4.18;1.63;;;18.00;99.90;;;;;;4971662;28;20373;-74
2022/09/15 08:28:34;;;;;;;2.30;1.42;;;17.90;99.90;;;;;;4959816;28;20058;-74
2022/09/15 08:31:14;;;;;;;1.58;1.13;;;18.00;99.90;;;;;;5001288;28;20030;-74
2022/09/15 08:33:40;;;;;;;1.80;1.20;;;18.10;99.90;;;;;;4987207;28;20051;-74
2022/09/15 08:36:12;;;;;;;4.35;1.45;;;17.90;99.90;;;;;;4989833;28;20034;-76
2022/09/15 08:38:39;;;;;;;2.45;1.77;;;18.10;99.90;;;;;;4985647;28;20029;-77
2022/09/15 08:41:17;;;;;;;2.90;1.52;;;18.20;99.90;;;;;;5000961;28;20089;-77
2022/09/15 08:44:15;;;;;;;4.47;1.58;;;18.30;99.90;;;;;;4968774;28;20491;-79
2022/09/15 08:46:58;;;;;;;7.07;2.42;;;18.40;99.90;;;;;;4956138;28;20037;-77
2022/09/15 08:49:48;;;;;;;4.05;1.67;;;18.60;99.90;;;;;;4984493;28;20038;-77
2022/09/15 08:52:44;;;;;;;6.93;1.92;;;18.60;99.90;;;;;;4989738;28;20089;-76
2022/09/15 08:55:41;;;;;;;3.10;1.90;;;18.60;99.90;;;;;;5010199;28;20375;-78
2022/09/15 08:58:16;;;;;;;3.53;1.90;;;18.60;99.90;;;;;;5020120;22;20049;-77
2022/09/15 09:00:46;;;;;;;3.55;1.80;;;18.60;99.90;;;;;;4980679;28;20052;-77
2022/09/15 09:03:33;;;;;;;5.60;1.83;;;18.60;99.90;;;;;;4978143;28;20046;-77
2022/09/15 09:06:31;;;;;;;6.28;1.83;;;18.50;99.90;;;;;;5017075;28;20037;-76
2022/09/15 09:09:21;;;;;;;8.40;1.90;;;18.70;99.90;;;;;;5004012;28;20041;-77
2022/09/15 09:12:05;;;;;;;5.45;1.90;;;18.70;99.90;;;;;;5003913;28;20045;-77
2022/09/15 09:14:58;;;;;;;2.47;1.52;;;18.80;99.90;;;;;;4991399;28;20034;-77
2022/09/15 09:18:19;;;;;;;3.40;1.77;;;18.90;99.90;;;;;;5003588;28;20051;-78
2022/09/15 09:21:12;;;;;;;6.38;2.20;;;19.00;99.90;;;;;;4976261;28;20457;-77
2022/09/15 09:23:56;;;;;;;3.17;1.85;;;19.00;99.90;;;;;;4998601;28;20041;-78
2022/09/15 09:26:21;;;;;;;3.17;1.63;;;19.00;99.90;;;;;;4998699;28;20453;-78
2022/09/15 09:29:00;;;;;;;3.25;1.92;;;19.00;99.90;;;;;;5002545;28;20034;-79
2022/09/15 09:31:27;;;;;;;4.75;2.13;;;19.10;99.90;;;;;;5003339;28;20401;-79
2022/09/15 09:34:05;;;;;;;2.60;1.38;;;18.90;99.90;;;;;;4988393;28;20454;-78
2022/09/15 09:36:31;;;;;;;5.25;1.88;;;19.10;99.90;;;;;;4970109;28;20403;-78
2022/09/15 09:38:57;;;;;;;3.80;1.45;;;19.10;99.90;;;;;;4971426;28;20030;-78
2022/09/15 09:41:34;;;;;;;3.97;2.22;;;19.10;99.90;;;;;;4980595;28;20088;-78
2022/09/15 09:44:03;;;;;;;2.55;1.45;;;19.10;99.90;;;;;;4965498;28;20041;-78
2022/09/15 09:46:30;;;;;;;1.88;1.17;;;19.10;99.90;;;;;;4996356;28;20109;-78
2022/09/15 09:49:03;;;;;;;2.97;1.15;;;19.10;99.90;;;;;;4986115;28;20022;-78
2022/09/15 09:51:36;;;;;;;3.25;1.58;;;19.10;99.90;;;;;;4983079;28;20026;-79
2022/09/15 09:54:16;;;;;;;1.60;1.10;;;19.20;99.90;;;;;;4977887;28;20479;-78
2022/09/15 09:56:51;;;;;;;9.83;1.80;;;19.20;99.90;;;;;;4962516;28;20037;-78
2022/09/15 09:59:40;;;;;;;2.30;1.13;;;19.10;99.90;;;;;;4984691;28;20515;-78
2022/09/15 10:02:14;;;;;;;1.42;0.90;;;19.20;99.90;;;;;;5000598;28;20079;-79
2022/09/15 10:04:47;;;;;;;2.35;1.15;;;19.10;99.90;;;;;;5004793;28;20030;-78
2022/09/15 10:07:16;;;;;;;2.58;1.00;;;19.10;99.90;;;;;;4999960;28;20042;-77
2022/09/15 10:09:53;;;;;;;1.67;0.93;;;19.20;99.90;;;;;;4976498;28;20160;-77
2022/09/15 10:12:40;;;;;;;4.38;1.10;;;19.20;99.90;;;;;;4991568;28;20087;-75
2022/09/15 10:15:26;;;;;;;2.30;1.25;;;19.30;99.90;;;;;;4973774;28;20070;-77
2022/09/15 10:17:54;;;;;;;0.80;0.47;;;19.30;99.90;;;;;;4991218;28;20034;-74
2022/09/15 10:20:31;;;;;;;0.73;0.57;;;19.40;99.90;;;;;;4977526;28;20030;-79
2022/09/15 10:23:15;;;;;;;6.32;0.90;;;19.40;99.90;;;;;;5007933;28;20106;-75
2022/09/15 10:25:41;;;;;;;2.22;1.08;;;19.40;99.90;;;;;;4998182;28;20109;-76
2022/09/15 10:28:21;;;;;;;0.45;0.40;;;19.40;99.90;;;;;;4990517;28;20100;-77
2022/09/15 10:31:04;;;;;;;1.10;0.60;;;19.50;99.90;;;;;;5006153;28;20140;-77
2022/09/15 10:33:41;;;;;;;0.55;0.55;;;19.60;99.90;;;;;;5006585;28;20042;-77
2022/09/15 10:36:13;;;;;;;3.67;1.13;;;19.60;99.90;;;;;;4982598;28;20038;-77
2022/09/15 10:38:53;;;;;;;1.75;0.77;;;19.70;99.90;;;;;;4976370;28;20035;-68
2022/09/15 10:41:29;;;;;;;1.95;1.00;;;19.70;99.90;;;;;;5009319;28;20032;-69
2022/09/15 10:44:17;;;;;;;0.90;0.50;;;19.70;99.90;;;;;;4989060;28;20128;-69
2022/09/15 10:47:06;;;;;;;2.63;0.68;;;19.60;99.90;;;;;;5001638;28;20211;-68
2022/09/15 10:49:45;;;;;;;3.55;0.90;;;19.90;99.90;;;;;;5011630;28;20030;-71
2022/09/15 10:52:45;;;;;;;1.95;0.70;;;20.20;99.90;;;;;;5003027;28;20045;-72
2022/09/15 10:55:39;;;;;;;2.22;1.13;;;20.30;99.90;;;;;;4978790;28;20494;-72
2022/09/15 10:58:51;;;;;;;2.72;1.10;;;20.20;99.90;;;;;;4978904;28;20038;-73
2022/09/15 11:01:29;;;;;;;3.00;0.90;;;20.20;99.90;;;;;;4984439;28;20030;-72
2022/09/15 11:04:00;;;;;;;3.58;0.77;;;20.10;99.90;;;;;;5009885;28;20049;-72
2022/09/15 11:06:37;;;;;;;1.20;0.77;;;19.90;99.90;;;;;;5001810;28;20031;-73
2022/09/15 11:09:28;;;;;;;1.08;0.80;;;19.90;99.90;;;;;;4978371;28;20037;-72
2022/09/15 11:12:38;;;;;;;3.13;1.27;;;19.70;99.90;;;;;;5001087;28;20552;-73
2022/09/15 11:15:41;;;;;;;1.73;0.98;;;20.10;99.90;;;;;;4991757;28;20042;-72
2022/09/15 11:19:04;;;;;;;2.83;1.02;;;20.40;99.90;;;;;;5003090;28;20052;-72
2022/09/15 11:21:59;;;;;;;2.47;1.20;;;20.70;99.90;;;;;;4940444;28;20138;-72
2022/09/15 11:24:38;;;;;;;3.67;1.48;;;20.90;99.90;;;;;;4912183;29;20043;-72
2022/09/15 11:27:28;;;;;;;2.85;0.95;;;21.20;99.90;;;;;;4972142;28;20065;-72
2022/09/15 11:30:16;;;;;;;2.85;0.80;;;21.70;99.90;;;;;;4973627;28;20034;-73
2022/09/15 11:32:51;;;;;;;1.35;0.80;;;21.70;99.90;;;;;;4994877;28;20414;-72
2022/09/15 11:35:39;;;;;;;1.95;0.90;;;21.20;99.90;;;;;;4976998;28;20034;-73
2022/09/15 11:38:56;;;;;;;5.78;1.88;;;20.70;99.90;;;;;;4978492;28;20035;-72
2022/09/15 11:41:49;;;;;;;4.20;0.95;;;20.50;99.90;;;;;;4985212;28;20029;-73
2022/09/15 11:44:28;;;;;;;0.73;0.55;;;20.60;99.90;;;;;;4990115;28;20030;-72
2022/09/15 11:47:32;;;;;;;4.57;0.93;;;21.10;99.90;;;;;;4976154;28;20110;-73
2022/09/15 11:50:10;;;;;;;2.10;0.80;;;21.50;99.90;;;;;;4987398;28;20394;-73
2022/09/15 11:52:48;;;;;;;2.38;0.90;;;21.90;99.90;;;;;;4983216;28;20060;-73
2022/09/15 11:55:44;;;;;;;7.65;1.13;;;21.70;99.90;;;;;;4974872;28;20696;-74
2022/09/15 11:58:28;;;;;;;1.63;0.88;;;21.90;99.90;;;;;;4998230;28;20145;-73
2022/09/15 12:01:18;;;;;;;3.28;1.27;;;22.00;99.90;;;;;;4993081;28;20046;-73
2022/09/15 12:04:15;;;;;;;2.38;1.20;;;22.20;99.90;;;;;;4978726;28;20928;-73
2022/09/15 12:06:50;;;;;;;2.35;1.50;;;22.40;99.90;;;;;;4998276;28;20046;-73
2022/09/15 12:09:18;;;;;;;1.48;0.95;;;22.30;99.90;;;;;;4996477;28;20027;-73
2022/09/15 12:11:47;;;;;;;1.83;1.23;;;22.30;99.90;;;;;;4982296;28;20049;-73
2022/09/15 12:14:33;;;;;;;3.85;1.80;;;22.40;99.90;;;;;;4993413;28;20030;-73
2022/09/15 12:17:00;;;;;;;1.77;0.93;;;22.90;99.90;;;;;;4984710;28;20042;-73
2022/09/15 12:19:35;;;;;;;2.20;0.85;;;22.80;99.90;;;;;;4973014;28;20447;-73
2022/09/15 12:22:32;;;;;;;2.67;1.27;;;22.90;99.90;;;;;;4997208;28;20049;-73
2022/09/15 12:25:23;;;;;;;3.03;1.55;;;23.40;99.40;;;;;;4990425;28;20032;-73
2022/09/15 12:28:34;;;;;;;3.55;1.67;;;23.30;98.80;;;;;;4976697;28;20452;-73
2022/09/15 12:31:27;;;;;;;3.72;1.33;;;23.40;98.40;;;;;;4979984;28;20030;-73
2022/09/15 12:34:04;;;;;;;2.78;1.00;;;23.70;98.40;;;;;;4998454;28;20037;-73
2022/09/15 12:36:51;;;;;;;3.15;1.50;;;22.30;98.70;;;;;;5006973;28;20038;-73
2022/09/15 12:39:35;;;;;;;4.45;1.52;;;21.90;99.90;;;;;;4982456;28;20399;-73
2022/09/15 12:42:19;;;;;;;3.83;1.63;;;22.10;99.60;;;;;;4983235;28;20026;-73
2022/09/15 12:45:01;;;;;;;4.50;2.05;;;21.60;99.90;;;;;;4987279;28;20022;-73
2022/09/15 12:47:53;;;;;;;2.00;1.13;;;21.10;99.90;;;;;;4982977;28;20111;-73
2022/09/15 12:50:23;;;;;;;4.50;1.92;;;21.00;99.90;;;;;;5001080;28;20045;-73
2022/09/15 12:53:22;;;;;;;2.63;1.60;;;20.90;99.90;;;;;;4980173;28;20457;-73
2022/09/15 12:55:51;;;;;;;3.92;2.05;;;20.90;99.90;;;;;;4980486;28;20503;-74
2022/09/15 12:58:38;;;;;;;5.13;2.30;;;20.90;99.90;;;;;;5008199;28;20045;-74
2022/09/15 13:01:22;;;;;;;5.00;2.20;;;20.80;99.90;;;;;;5002019;28;20044;-74
2022/09/15 13:03:48;;;;;;;6.47;2.05;;;20.50;99.90;;;;;;4997785;28;20057;-74
2022/09/15 13:06:24;;;;;;;6.10;2.08;;;20.50;99.90;;;;;;5001727;28;20077;-74
2022/09/15 13:09:04;;;;;;;8.30;1.67;;;20.60;99.90;;;;;;5005052;28;20053;-74
2022/09/15 13:11:33;;;;;;;3.05;1.77;;;20.70;99.90;;;;;;4998695;28;20033;-74
2022/09/15 13:14:09;;;;;;;3.08;1.35;;;20.80;99.90;;;;;;5005107;28;20029;-74
2022/09/15 13:16:47;;;;;;;2.88;1.60;;;21.60;99.90;;;;;;4999645;28;20386;-73
2022/09/15 13:19:22;;;;;;;2.67;0.77;;;22.60;98.00;;;;;;5003422;28;20541;-73
2022/09/15 13:22:08;;;;;;;2.95;1.00;;;23.10;96.90;;;;;;4983191;28;20125;-73
2022/09/15 13:24:54;;;;;;;2.10;1.00;;;23.70;96.40;;;;;;4969109;28;20145;-73
2022/09/15 13:27:27;;;;;;;1.25;0.85;;;24.40;94.30;;;;;;4985691;28;20034;-73